createdAt,value
2022-11-27T00:00:00.958Z,92.7
2022-11-27T00:01:01.116Z,92.7
2022-11-27T00:02:01.222Z,92.7
2022-11-27T00:03:00.560Z,92.8
2022-11-27T00:04:00.634Z,92.8
2022-11-27T00:05:00.668Z,92.8
2022-11-27T00:06:00.840Z,92.8
2022-11-27T00:07:00.953Z,92.8
2022-11-27T00:08:01.143Z,92.8
2022-11-27T00:09:01.250Z,92.8
2022-11-27T00:10:00.390Z,92.8
2022-11-27T00:11:00.562Z,92.8
2022-11-27T00:12:00.685Z,92.8
2022-11-27T00:13:00.830Z,92.8
2022-11-27T00:14:00.971Z,92.8
2022-11-27T00:15:01.156Z,92.8
2022-11-27T00:16:00.307Z,92.8
2022-11-27T00:17:00.404Z,92.8
2022-11-27T00:18:00.556Z,92.8
2022-11-27T00:19:00.701Z,92.8
2022-11-27T00:20:00.878Z,92.8
2022-11-27T00:21:01.014Z,92.8
2022-11-27T00:22:01.152Z,92.8
2022-11-27T00:23:00.306Z,92.8
2022-11-27T00:24:00.450Z,92.8
2022-11-27T00:25:00.633Z,92.8
2022-11-27T00:26:00.789Z,92.7
2022-11-27T00:27:00.897Z,92.7
2022-11-27T00:28:01.064Z,92.7
2022-11-27T00:29:01.196Z,92.8
2022-11-27T00:30:00.354Z,92.8
2022-11-27T00:31:00.575Z,92.8
2022-11-27T00:32:00.640Z,92.8
2022-11-27T00:33:00.791Z,92.8
2022-11-27T00:34:00.945Z,92.7
2022-11-27T00:35:01.099Z,92.7
2022-11-27T00:36:01.283Z,92.7
2022-11-27T00:37:00.389Z,92.8
2022-11-27T00:38:00.543Z,92.8
2022-11-27T00:39:00.691Z,92.8
2022-11-27T00:40:00.836Z,92.8
2022-11-27T00:41:01.018Z,92.8
2022-11-27T00:42:01.135Z,92.9
2022-11-27T00:43:00.277Z,92.9
2022-11-27T00:44:00.425Z,92.9
2022-11-27T00:45:00.564Z,92.8
2022-11-27T00:46:00.816Z,92.9
2022-11-27T00:47:01.012Z,92.9
2022-11-27T00:48:00.997Z,92.9
2022-11-27T00:49:01.157Z,92.9
2022-11-27T00:50:00.296Z,92.9
2022-11-27T00:51:00.456Z,92.9
2022-11-27T00:52:00.586Z,93
2022-11-27T00:53:00.729Z,93
2022-11-27T00:54:00.868Z,92.9
2022-11-27T00:55:01.056Z,92.9
2022-11-27T00:56:01.172Z,92.9
2022-11-27T00:57:00.339Z,92.9
2022-11-27T00:58:00.456Z,92.9
2022-11-27T00:59:00.610Z,92.8
2022-11-27T01:00:00.754Z,92.8
2022-11-27T01:01:00.902Z,92.8
2022-11-27T01:02:01.144Z,92.8
2022-11-27T01:03:01.230Z,92.8
2022-11-27T01:04:00.336Z,92.8
2022-11-27T01:05:00.481Z,92.8
2022-11-27T01:06:00.622Z,92.8
2022-11-27T01:07:00.801Z,92.8
2022-11-27T01:08:00.920Z,92.9
2022-11-27T01:09:01.070Z,92.9
2022-11-27T01:10:01.218Z,93
2022-11-27T01:11:00.353Z,93
2022-11-27T01:12:00.531Z,93
2022-11-27T01:13:00.651Z,93
2022-11-27T01:14:00.798Z,93
2022-11-27T01:15:00.942Z,93.1
2022-11-27T01:16:01.162Z,93.1
2022-11-27T01:17:01.247Z,93.1
2022-11-27T01:18:00.366Z,93.2
2022-11-27T01:19:00.497Z,93.2
2022-11-27T01:20:00.656Z,93.3
2022-11-27T01:21:00.824Z,93.3
2022-11-27T01:22:00.984Z,93.3
2022-11-27T01:23:01.100Z,93.3
2022-11-27T01:24:01.243Z,93.3
2022-11-27T01:25:00.385Z,93.3
2022-11-27T01:26:00.532Z,93.3
2022-11-27T01:27:00.720Z,93.3
2022-11-27T01:28:00.838Z,93.3
2022-11-27T01:29:01.000Z,93.2
2022-11-27T01:30:01.136Z,93.3
2022-11-27T01:31:00.337Z,93.3
2022-11-27T01:32:00.440Z,93.2
2022-11-27T01:33:00.569Z,93.3
2022-11-27T01:34:00.713Z,93.2
2022-11-27T01:35:00.852Z,93.2
2022-11-27T01:36:01.028Z,93.2
2022-11-27T01:37:01.157Z,93.3
2022-11-27T01:38:00.298Z,93.3
2022-11-27T01:39:00.435Z,93.3
2022-11-27T01:40:00.602Z,93.3
2022-11-27T01:41:00.762Z,93.3
2022-11-27T01:42:00.886Z,93.3
2022-11-27T01:43:01.029Z,93.3
2022-11-27T01:44:01.158Z,93.3
2022-11-27T01:45:00.315Z,93.3
2022-11-27T01:46:00.514Z,93.2
2022-11-27T01:47:00.723Z,93.2
2022-11-27T01:48:00.752Z,93.2
2022-11-27T01:49:00.902Z,93.2
2022-11-27T01:50:01.056Z,93.2
2022-11-27T01:51:01.212Z,93.2
2022-11-27T01:52:00.337Z,93.2
2022-11-27T01:53:00.488Z,93.2
2022-11-27T01:54:00.637Z,93.2
2022-11-27T01:55:00.791Z,93.3
2022-11-27T01:56:00.952Z,93.3
2022-11-27T01:57:01.082Z,93.2
2022-11-27T01:58:01.223Z,93.2
2022-11-27T01:59:00.373Z,93.2
2022-11-27T02:00:00.520Z,93.2
2022-11-27T02:01:00.682Z,93.3
2022-11-27T02:02:00.896Z,93.2
2022-11-27T02:03:00.998Z,93.2
2022-11-27T02:04:01.119Z,93.2
2022-11-27T02:05:01.252Z,93.2
2022-11-27T02:06:00.398Z,93.2
2022-11-27T02:07:00.565Z,93.2
2022-11-27T02:08:00.766Z,93.2
2022-11-27T02:09:00.863Z,93.3
2022-11-27T02:10:00.989Z,93.3
2022-11-27T02:11:01.136Z,93.4
2022-11-27T02:12:00.277Z,93.3
2022-11-27T02:13:00.423Z,93.4
2022-11-27T02:14:00.592Z,93.3
2022-11-27T02:15:00.751Z,93.3
2022-11-27T02:16:00.909Z,93.3
2022-11-27T02:17:01.025Z,93.3
2022-11-27T02:18:01.168Z,93.3
2022-11-27T02:19:00.322Z,93.3
2022-11-27T02:20:00.481Z,93.3
2022-11-27T02:21:00.638Z,93.3
2022-11-27T02:22:00.769Z,93.3
2022-11-27T02:23:00.915Z,93.3
2022-11-27T02:24:01.068Z,93.3
2022-11-27T02:25:01.227Z,93.3
2022-11-27T02:26:00.373Z,93.3
2022-11-27T02:27:00.527Z,93.3
2022-11-27T02:28:00.649Z,93.3
2022-11-27T02:29:00.803Z,93.3
2022-11-27T02:30:00.971Z,93.3
2022-11-27T02:31:01.131Z,93.3
2022-11-27T02:32:01.267Z,93.3
2022-11-27T02:33:00.392Z,93.3
2022-11-27T02:34:00.546Z,93.3
2022-11-27T02:35:00.696Z,93.4
2022-11-27T02:36:00.843Z,93.4
2022-11-27T02:37:01.013Z,93.5
2022-11-27T02:38:01.195Z,93.5
2022-11-27T02:39:00.291Z,93.5
2022-11-27T02:40:00.450Z,93.5
2022-11-27T02:41:00.596Z,93.5
2022-11-27T02:42:01.345Z,93.4
2022-11-27T02:43:00.912Z,93.4
2022-11-27T02:44:01.037Z,93.4
2022-11-27T02:45:01.179Z,93.4
2022-11-27T02:46:00.362Z,93.4
2022-11-27T02:47:00.468Z,93.3
2022-11-27T02:48:00.629Z,93.4
2022-11-27T02:49:00.764Z,93.4
2022-11-27T02:50:00.921Z,93.4
2022-11-27T02:51:01.067Z,93.4
2022-11-27T02:52:01.210Z,93.4
2022-11-27T02:53:00.389Z,93.4
2022-11-27T02:54:00.504Z,93.4
2022-11-27T02:55:00.647Z,93.4
2022-11-27T02:56:00.792Z,93.4
2022-11-27T02:57:00.943Z,93.4
2022-11-27T02:58:01.104Z,93.4
2022-11-27T02:59:01.243Z,93.4
2022-11-27T03:00:00.396Z,93.4
2022-11-27T03:01:00.550Z,93.4
2022-11-27T03:02:00.759Z,93.4
2022-11-27T03:03:01.004Z,93.4
2022-11-27T03:04:01.009Z,93.4
2022-11-27T03:05:01.131Z,93.5
2022-11-27T03:06:00.285Z,93.4
2022-11-27T03:07:00.428Z,93.4
2022-11-27T03:08:00.661Z,93.4
2022-11-27T03:09:00.736Z,93.4
2022-11-27T03:10:00.874Z,93.4
2022-11-27T03:11:01.014Z,93.4
2022-11-27T03:12:01.159Z,93.4
2022-11-27T03:13:00.330Z,93.4
2022-11-27T03:14:00.443Z,93.4
2022-11-27T03:15:00.585Z,93.4
2022-11-27T03:16:00.793Z,93.4
2022-11-27T03:17:00.890Z,93.4
2022-11-27T03:18:01.083Z,93.4
2022-11-27T03:19:01.183Z,93.5
2022-11-27T03:20:00.332Z,93.5
2022-11-27T03:21:00.475Z,93.5
2022-11-27T03:22:00.615Z,93.5
2022-11-27T03:23:00.787Z,93.5
2022-11-27T03:24:00.895Z,93.5
2022-11-27T03:25:01.041Z,93.6
2022-11-27T03:26:01.183Z,93.6
2022-11-27T03:27:00.336Z,93.6
2022-11-27T03:28:00.491Z,93.6
2022-11-27T03:29:00.656Z,93.6
2022-11-27T03:30:00.766Z,93.6
2022-11-27T03:31:00.972Z,93.6
2022-11-27T03:32:01.067Z,93.6
2022-11-27T03:33:01.193Z,93.6
2022-11-27T03:34:00.352Z,93.6
2022-11-27T03:35:00.478Z,93.6
2022-11-27T03:36:00.637Z,93.6
2022-11-27T03:37:00.775Z,93.6
2022-11-27T03:38:00.931Z,93.6
2022-11-27T03:39:01.102Z,93.6
2022-11-27T03:40:01.239Z,93.6
2022-11-27T03:41:00.376Z,93.6
2022-11-27T03:42:00.528Z,93.6
2022-11-27T03:43:00.667Z,93.6
2022-11-27T03:44:00.825Z,93.7
2022-11-27T03:45:00.998Z,93.7
2022-11-27T03:46:01.119Z,93.8
2022-11-27T03:48:00.463Z,93.8
2022-11-27T03:49:00.533Z,93.8
2022-11-27T03:50:00.700Z,93.7
2022-11-27T03:51:00.820Z,93.7
2022-11-27T03:52:00.973Z,93.7
2022-11-27T03:53:01.124Z,93.7
2022-11-27T03:54:00.275Z,93.7
2022-11-27T03:55:00.444Z,93.7
2022-11-27T03:56:04.242Z,93.8
2022-11-27T03:57:00.721Z,93.8
2022-11-27T03:58:00.877Z,93.9
2022-11-27T03:59:01.025Z,93.8
2022-11-27T04:00:01.192Z,93.8
2022-11-27T04:01:00.324Z,93.8
2022-11-27T04:02:00.498Z,93.7
2022-11-27T04:03:00.617Z,93.7
2022-11-27T04:04:00.797Z,93.7
2022-11-27T04:05:00.934Z,93.7
2022-11-27T04:06:01.069Z,93.7
2022-11-27T04:07:01.204Z,93.7
2022-11-27T04:08:00.351Z,93.7
2022-11-27T04:09:00.507Z,93.7
2022-11-27T04:10:00.681Z,93.7
2022-11-27T04:11:00.796Z,93.7
2022-11-27T04:12:00.940Z,93.7
2022-11-27T04:13:01.091Z,93.7
2022-11-27T04:14:01.239Z,93.7
2022-11-27T04:15:00.426Z,93.8
2022-11-27T04:16:00.560Z,93.8
2022-11-27T04:17:00.686Z,93.8
2022-11-27T04:18:00.842Z,93.8
2022-11-27T04:19:00.994Z,93.8
2022-11-27T04:20:01.170Z,93.7
2022-11-27T04:21:00.291Z,93.7
2022-11-27T04:22:00.445Z,93.7
2022-11-27T04:23:00.589Z,93.8
2022-11-27T04:24:00.743Z,93.7
2022-11-27T04:25:00.885Z,93.8
2022-11-27T04:26:01.017Z,93.8
2022-11-27T04:27:01.173Z,93.8
2022-11-27T04:28:00.321Z,93.8
2022-11-27T04:29:00.461Z,93.8
2022-11-27T04:30:00.629Z,93.8
2022-11-27T04:31:00.771Z,93.8
2022-11-27T04:32:00.895Z,93.8
2022-11-27T04:33:01.047Z,93.8
2022-11-27T04:34:01.178Z,93.8
2022-11-27T04:35:00.372Z,93.8
2022-11-27T04:36:00.467Z,93.8
2022-11-27T04:37:00.613Z,93.7
2022-11-27T04:38:00.773Z,93.7
2022-11-27T04:39:00.915Z,93.7
2022-11-27T04:40:01.082Z,93.7
2022-11-27T04:41:01.232Z,93.7
2022-11-27T04:42:00.377Z,93.7
2022-11-27T04:43:00.510Z,93.7
2022-11-27T04:44:00.656Z,93.7
2022-11-27T04:45:00.813Z,93.7
2022-11-27T04:46:00.976Z,93.8
2022-11-27T04:47:01.152Z,93.8
2022-11-27T04:48:00.261Z,93.8
2022-11-27T04:49:00.416Z,93.8
2022-11-27T04:50:00.552Z,93.8
2022-11-27T04:51:00.726Z,93.8
2022-11-27T04:52:00.852Z,93.8
2022-11-27T04:53:00.999Z,93.9
2022-11-27T04:54:01.146Z,93.9
2022-11-27T04:55:00.730Z,93.9
2022-11-27T04:56:00.460Z,93.9
2022-11-27T04:57:00.574Z,93.9
2022-11-27T04:58:00.719Z,93.9
2022-11-27T04:59:00.875Z,93.9
2022-11-27T05:00:01.033Z,93.9
2022-11-27T05:01:01.343Z,93.9
2022-11-27T05:02:00.324Z,94
2022-11-27T05:03:00.579Z,94.1
2022-11-27T05:04:00.616Z,94.1
2022-11-27T05:05:00.771Z,94.1
2022-11-27T05:06:00.939Z,94
2022-11-27T05:07:01.069Z,94
2022-11-27T05:08:01.275Z,94
2022-11-27T05:09:00.359Z,94
2022-11-27T05:10:00.508Z,94
2022-11-27T05:11:00.671Z,94
2022-11-27T05:12:00.765Z,94
2022-11-27T05:13:00.913Z,94
2022-11-27T05:14:01.076Z,94
2022-11-27T05:15:04.392Z,93.9
2022-11-27T05:16:00.440Z,93.9
2022-11-27T05:17:00.511Z,93.9
2022-11-27T05:18:00.675Z,93.9
2022-11-27T05:19:00.789Z,93.9
2022-11-27T05:20:00.949Z,93.9
2022-11-27T05:21:01.088Z,94
2022-11-27T05:22:01.245Z,94
2022-11-27T05:23:00.402Z,94
2022-11-27T05:24:00.526Z,94
2022-11-27T05:25:00.678Z,94
2022-11-27T05:26:00.831Z,93.9
2022-11-27T05:27:00.975Z,93.9
2022-11-27T05:28:01.152Z,93.9
2022-11-27T05:29:00.279Z,93.9
2022-11-27T05:30:00.425Z,93.9
2022-11-27T05:31:00.613Z,93.9
2022-11-27T05:32:00.729Z,93.9
2022-11-27T05:33:00.869Z,93.9
2022-11-27T05:34:01.039Z,94
2022-11-27T05:35:01.150Z,94
2022-11-27T05:36:00.304Z,94
2022-11-27T05:37:00.447Z,93.9
2022-11-27T05:38:00.594Z,93.9
2022-11-27T05:39:00.761Z,93.9
2022-11-27T05:40:00.932Z,93.9
2022-11-27T05:41:01.056Z,93.9
2022-11-27T05:42:01.198Z,93.9
2022-11-27T05:43:00.338Z,93.9
2022-11-27T05:44:00.484Z,93.8
2022-11-27T05:45:00.633Z,93.8
2022-11-27T05:46:00.802Z,93.8
2022-11-27T05:47:00.984Z,93.9
2022-11-27T05:48:01.080Z,93.8
2022-11-27T05:49:01.230Z,93.9
2022-11-27T05:50:00.378Z,93.9
2022-11-27T05:51:00.538Z,93.9
2022-11-27T05:52:00.658Z,94
2022-11-27T05:53:00.807Z,94.2
2022-11-27T05:54:00.954Z,94.2
2022-11-27T05:55:01.105Z,94.3
2022-11-27T05:56:01.270Z,94.4
2022-11-27T05:57:00.400Z,94.4
2022-11-27T05:58:00.539Z,94.4
2022-11-27T05:59:00.691Z,94.4
2022-11-27T06:00:00.851Z,94.3
2022-11-27T06:01:01.007Z,94.2
2022-11-27T06:02:01.219Z,94.1
2022-11-27T06:03:00.451Z,94
2022-11-27T06:04:00.426Z,94
2022-11-27T06:05:00.578Z,94
2022-11-27T06:06:00.729Z,94
2022-11-27T06:07:00.890Z,94
2022-11-27T06:08:01.054Z,94
2022-11-27T06:09:01.177Z,94
2022-11-27T06:10:00.318Z,94
2022-11-27T06:11:00.473Z,94
2022-11-27T06:12:00.640Z,94
2022-11-27T06:13:00.806Z,94
2022-11-27T06:14:00.908Z,94
2022-11-27T06:15:01.074Z,94
2022-11-27T06:16:01.268Z,94
2022-11-27T06:17:00.396Z,94
2022-11-27T06:18:00.566Z,93.9
2022-11-27T06:19:00.691Z,93.9
2022-11-27T06:20:00.819Z,93.9
2022-11-27T06:21:00.967Z,93.9
2022-11-27T06:22:01.112Z,93.9
2022-11-27T06:24:00.382Z,93.9
2022-11-27T06:25:00.513Z,93.9
2022-11-27T06:26:00.658Z,93.8
2022-11-27T06:27:00.813Z,93.9
2022-11-27T06:28:00.963Z,93.9
2022-11-27T06:29:01.138Z,94
2022-11-27T06:31:00.372Z,94.1
2022-11-27T06:32:00.581Z,94.2
2022-11-27T06:33:00.667Z,94.2
2022-11-27T06:34:00.837Z,94.2
2022-11-27T06:35:00.997Z,94.1
2022-11-27T06:36:01.124Z,94.1
2022-11-27T06:37:00.269Z,94
2022-11-27T06:38:00.413Z,94.1
2022-11-27T06:39:00.562Z,94.2
2022-11-27T06:40:00.732Z,94.2
2022-11-27T06:41:00.860Z,94.2
2022-11-27T06:42:01.012Z,94.2
2022-11-27T06:43:01.147Z,94.1
2022-11-27T06:44:00.300Z,94
2022-11-27T06:45:00.455Z,94
2022-11-27T06:46:00.723Z,94
2022-11-27T06:47:00.738Z,94
2022-11-27T06:48:00.891Z,94
2022-11-27T06:49:01.038Z,94.1
2022-11-27T06:50:01.204Z,94.1
2022-11-27T06:51:00.370Z,94.1
2022-11-27T06:52:00.486Z,94.1
2022-11-27T06:53:00.633Z,94.1
2022-11-27T06:54:00.779Z,94.1
2022-11-27T06:55:00.947Z,94.1
2022-11-27T06:56:01.090Z,94.1
2022-11-27T06:57:01.212Z,94.1
2022-11-27T06:58:00.356Z,94
2022-11-27T06:59:00.517Z,94
2022-11-27T07:00:00.644Z,94
2022-11-27T07:01:00.895Z,94
2022-11-27T07:02:01.015Z,94
2022-11-27T07:03:01.097Z,94
2022-11-27T07:04:01.228Z,94.1
2022-11-27T07:05:00.377Z,94.1
2022-11-27T07:06:00.541Z,94.1
2022-11-27T07:07:00.667Z,94.2
2022-11-27T07:08:00.937Z,94.2
2022-11-27T07:09:00.971Z,94.1
2022-11-27T07:10:01.118Z,94.1
2022-11-27T07:11:01.264Z,94.1
2022-11-27T07:12:00.426Z,94.1
2022-11-27T07:13:00.553Z,94.1
2022-11-27T07:14:00.697Z,94.1
2022-11-27T07:15:04.039Z,94.1
2022-11-27T07:16:01.080Z,94.2
2022-11-27T07:17:01.160Z,94.2
2022-11-27T07:18:00.287Z,94.2
2022-11-27T07:19:00.439Z,94.2
2022-11-27T07:20:00.583Z,94.2
2022-11-27T07:21:00.729Z,94.2
2022-11-27T07:22:00.891Z,94.2
2022-11-27T07:23:01.017Z,94.2
2022-11-27T07:24:01.200Z,94.2
2022-11-27T07:25:00.328Z,94.2
2022-11-27T07:26:00.480Z,94.2
2022-11-27T07:27:00.646Z,94.1
2022-11-27T07:28:00.783Z,94.1
2022-11-27T07:29:00.928Z,94.1
2022-11-27T07:30:01.084Z,94.1
2022-11-27T07:31:01.239Z,94.1
2022-11-27T07:32:00.479Z,94.1
2022-11-27T07:33:00.529Z,94.1
2022-11-27T07:34:00.681Z,94.1
2022-11-27T07:35:00.827Z,94.1
2022-11-27T07:36:00.981Z,94.1
2022-11-27T07:37:01.156Z,94
2022-11-27T07:38:00.288Z,94.1
2022-11-27T07:39:00.436Z,94.1
2022-11-27T07:40:03.233Z,94.1
2022-11-27T07:41:00.741Z,94.1
2022-11-27T07:42:23.172Z,94.2
2022-11-27T07:43:01.090Z,94.2
2022-11-27T07:44:01.244Z,94.2
2022-11-27T07:45:00.364Z,94.2
2022-11-27T07:46:00.581Z,94.3
2022-11-27T07:47:00.690Z,94.4
2022-11-27T07:48:00.821Z,94.5
2022-11-27T07:49:00.989Z,94.5
2022-11-27T07:50:01.102Z,94.4
2022-11-27T07:51:01.253Z,94.4
2022-11-27T07:52:00.432Z,94.3
2022-11-27T07:53:00.557Z,94.3
2022-11-27T07:54:00.705Z,94.2
2022-11-27T07:55:00.861Z,94.2
2022-11-27T07:56:01.003Z,94.2
2022-11-27T07:57:01.166Z,94.1
2022-11-27T07:58:00.293Z,94.1
2022-11-27T07:59:00.432Z,94.1
2022-11-27T08:00:00.577Z,94.1
2022-11-27T08:01:00.841Z,94.1
2022-11-27T08:02:00.894Z,94.1
2022-11-27T08:03:01.034Z,94.2
2022-11-27T08:04:01.182Z,94.2
2022-11-27T08:05:00.530Z,94.2
2022-11-27T08:06:00.463Z,94.2
2022-11-27T08:07:00.624Z,94.2
2022-11-27T08:08:00.867Z,94.2
2022-11-27T08:09:00.906Z,94.2
2022-11-27T08:10:01.055Z,94.2
2022-11-27T08:11:01.218Z,94.2
2022-11-27T08:12:00.366Z,94.2
2022-11-27T08:13:00.524Z,94.2
2022-11-27T08:14:00.692Z,94.2
2022-11-27T08:15:00.805Z,94.2
2022-11-27T08:16:00.977Z,94.2
2022-11-27T08:17:01.097Z,94.1
2022-11-27T08:18:01.248Z,94.1
2022-11-27T08:19:00.399Z,94.2
2022-11-27T08:20:00.557Z,94.2
2022-11-27T08:21:00.684Z,94.1
2022-11-27T08:22:00.832Z,94.2
2022-11-27T08:23:02.980Z,94.2
2022-11-27T08:24:01.132Z,94.2
2022-11-27T08:25:00.300Z,94.1
2022-11-27T08:26:00.419Z,94.2
2022-11-27T08:27:00.568Z,94.2
2022-11-27T08:28:00.720Z,94.2
2022-11-27T08:29:00.855Z,94.2
2022-11-27T08:30:01.037Z,94.1
2022-11-27T08:31:01.146Z,94.1
2022-11-27T08:32:00.357Z,94.2
2022-11-27T08:33:00.488Z,94.2
2022-11-27T08:34:00.601Z,94.2
2022-11-27T08:35:00.760Z,94.2
2022-11-27T08:36:00.892Z,94.2
2022-11-27T08:37:01.044Z,94.2
2022-11-27T08:38:01.213Z,94.2
2022-11-27T08:39:00.339Z,94.3
2022-11-27T08:40:00.490Z,94.2
2022-11-27T08:41:00.688Z,94.2
2022-11-27T08:42:00.794Z,94.2
2022-11-27T08:43:00.948Z,94.2
2022-11-27T08:44:02.681Z,94.2
2022-11-27T08:45:01.239Z,94.3
2022-11-27T08:46:00.432Z,94.3
2022-11-27T08:47:00.558Z,94.3
2022-11-27T08:48:00.686Z,94.2
2022-11-27T08:49:00.850Z,94.2
2022-11-27T08:50:00.982Z,94.3
2022-11-27T08:51:01.129Z,94.2
2022-11-27T08:52:00.282Z,94.2
2022-11-27T08:53:00.422Z,94.2
2022-11-27T08:54:00.583Z,94.2
2022-11-27T08:55:00.754Z,94.2
2022-11-27T08:56:00.866Z,94.1
2022-11-27T08:57:01.023Z,94.2
2022-11-27T08:58:01.165Z,94.2
2022-11-27T08:59:00.301Z,94.2
2022-11-27T09:00:00.479Z,94.1
2022-11-27T09:01:00.672Z,94.1
2022-11-27T09:02:00.773Z,94.1
2022-11-27T09:03:00.915Z,94.1
2022-11-27T09:04:01.165Z,94.1
2022-11-27T09:05:01.224Z,94.1
2022-11-27T09:06:00.355Z,94.1
2022-11-27T09:07:00.502Z,94.1
2022-11-27T09:08:00.720Z,94.1
2022-11-27T09:09:00.799Z,94.1
2022-11-27T09:10:00.958Z,94.1
2022-11-27T09:11:01.090Z,94.1
2022-11-27T09:12:01.237Z,94.1
2022-11-27T09:13:00.407Z,94.1
2022-11-27T09:14:00.523Z,94.1
2022-11-27T09:15:00.668Z,94.2
2022-11-27T09:16:00.865Z,94.2
2022-11-27T09:17:01.050Z,94.2
2022-11-27T09:18:01.144Z,94.2
2022-11-27T09:19:00.272Z,94.2
2022-11-27T09:20:00.406Z,94.2
2022-11-27T09:21:00.552Z,94.2
2022-11-27T09:22:00.714Z,94.2
2022-11-27T09:23:00.865Z,94.2
2022-11-27T09:24:01.005Z,94.2
2022-11-27T09:25:01.151Z,94.2
2022-11-27T09:26:00.285Z,94.2
2022-11-27T09:27:00.429Z,94.3
2022-11-27T09:28:00.598Z,94.4
2022-11-27T09:29:00.731Z,94.5
2022-11-27T09:30:00.874Z,94.6
2022-11-27T09:31:01.039Z,94.6
2022-11-27T09:32:01.214Z,94.7
2022-11-27T09:33:00.308Z,94.7
2022-11-27T09:34:00.457Z,94.8
2022-11-27T09:35:00.651Z,94.8
2022-11-27T09:36:00.770Z,94.7
2022-11-27T09:37:00.928Z,94.7
2022-11-27T09:38:01.058Z,94.7
2022-11-27T09:39:01.199Z,94.7
2022-11-27T09:40:00.352Z,94.8
2022-11-27T09:41:03.128Z,94.8
2022-11-27T09:42:00.661Z,94.8
2022-11-27T09:43:00.794Z,94.8
2022-11-27T09:44:00.938Z,94.9
2022-11-27T09:45:01.095Z,94.9
2022-11-27T09:46:01.365Z,95
2022-11-27T09:47:00.388Z,95.1
2022-11-27T09:48:00.516Z,95.1
2022-11-27T09:49:00.679Z,95.1
2022-11-27T09:50:00.832Z,95.1
2022-11-27T09:51:00.965Z,95.1
2022-11-27T09:52:01.128Z,95.2
2022-11-27T09:53:00.258Z,95.2
2022-11-27T09:54:00.398Z,95.2
2022-11-27T09:55:00.576Z,95.2
2022-11-27T09:56:00.715Z,95.2
2022-11-27T09:57:00.875Z,95.3
2022-11-27T09:58:00.989Z,95.3
2022-11-27T09:59:01.141Z,95.3
2022-11-27T10:00:00.286Z,95.3
2022-11-27T10:01:00.428Z,95.3
2022-11-27T10:02:00.708Z,95.3
2022-11-27T10:03:01.027Z,95.3
2022-11-27T10:04:00.858Z,95.3
2022-11-27T10:05:14.737Z,95.3
2022-11-27T10:06:01.158Z,95.3
2022-11-27T10:07:00.300Z,95.4
2022-11-27T10:08:06.095Z,95.4
2022-11-27T10:09:00.619Z,95.4
2022-11-27T10:10:00.754Z,95.4
2022-11-27T10:11:00.902Z,95.4
2022-11-27T10:12:01.051Z,95.4
2022-11-27T10:13:01.190Z,95.5
2022-11-27T10:14:00.339Z,95.5
2022-11-27T10:15:00.505Z,95.5
2022-11-27T10:16:00.614Z,95.5
2022-11-27T10:17:00.807Z,95.5
2022-11-27T10:18:00.925Z,95.5
2022-11-27T10:19:01.067Z,95.5
2022-11-27T10:20:01.236Z,95.5
2022-11-27T10:21:00.362Z,95.5
2022-11-27T10:22:00.518Z,95.5
2022-11-27T10:23:00.653Z,95.5
2022-11-27T10:24:00.792Z,95.5
2022-11-27T10:25:00.965Z,95.5
2022-11-27T10:26:01.124Z,95.5
2022-11-27T10:27:01.254Z,95.4
2022-11-27T10:28:00.402Z,95.4
2022-11-27T10:29:00.536Z,95.4
2022-11-27T10:30:00.682Z,95.3
2022-11-27T10:31:00.859Z,95.2
2022-11-27T10:32:01.092Z,95.1
2022-11-27T10:33:01.217Z,95
2022-11-27T10:34:00.282Z,94.9
2022-11-27T10:35:00.416Z,94.7
2022-11-27T10:36:00.570Z,94.6
2022-11-27T10:37:00.703Z,94.5
2022-11-27T10:38:05.209Z,94.1
2022-11-27T10:39:00.999Z,93.7
2022-11-27T10:40:01.184Z,93.4
2022-11-27T10:41:00.303Z,93
2022-11-27T10:42:00.471Z,92.6
2022-11-27T10:43:00.598Z,92.3
2022-11-27T10:44:01.910Z,92.2
2022-11-27T10:45:00.904Z,91.9
2022-11-27T10:46:01.152Z,91.6
2022-11-27T10:47:01.195Z,91.3
2022-11-27T10:48:00.326Z,91.2
2022-11-27T10:49:00.475Z,91.1
2022-11-27T10:50:00.628Z,91.1
2022-11-27T10:51:00.778Z,90.8
2022-11-27T10:52:00.941Z,90.6
2022-11-27T10:53:01.061Z,90.3
2022-11-27T10:54:01.250Z,90
2022-11-27T10:55:00.384Z,89.5
2022-11-27T10:56:00.516Z,89.3
2022-11-27T10:57:00.659Z,88.9
2022-11-27T10:58:00.804Z,88.1
2022-11-27T10:59:00.951Z,86.7
2022-11-27T11:00:01.114Z,86
2022-11-27T11:01:01.284Z,85.5
2022-11-27T11:02:00.421Z,85.4
2022-11-27T11:03:00.538Z,85.2
2022-11-27T11:04:00.670Z,84.1
2022-11-27T11:05:30.789Z,83.9
2022-11-27T11:06:21.309Z,83.6
2022-11-27T11:07:01.127Z,83.1
2022-11-27T11:08:00.302Z,83
2022-11-27T11:09:01.595Z,82.8
2022-11-27T11:10:00.595Z,82.9
2022-11-27T11:11:00.706Z,83.8
2022-11-27T11:12:00.855Z,83
2022-11-27T11:13:01.006Z,83.7
2022-11-27T11:14:01.147Z,83
2022-11-27T11:15:00.326Z,82.9
2022-11-27T11:16:00.445Z,82.7
2022-11-27T11:17:00.653Z,82.9
2022-11-27T11:18:00.736Z,82.1
2022-11-27T11:19:00.903Z,82.5
2022-11-27T11:20:01.045Z,82.1
2022-11-27T11:21:01.187Z,81.4
2022-11-27T11:22:00.319Z,81.3
2022-11-27T11:23:00.466Z,81.7
2022-11-27T11:24:00.620Z,81.8
2022-11-27T11:25:00.782Z,80.9
2022-11-27T11:26:00.937Z,82
2022-11-27T11:27:01.054Z,82.7
2022-11-27T11:28:01.197Z,82
2022-11-27T11:29:00.333Z,81.2
2022-11-27T11:30:00.492Z,81.5
2022-11-27T11:31:00.667Z,82.6
2022-11-27T11:32:00.880Z,82.1
2022-11-27T11:33:00.948Z,82.1
2022-11-27T11:34:01.128Z,81.9
2022-11-27T11:35:01.613Z,81.6
2022-11-27T11:36:00.416Z,82.2
2022-11-27T11:37:00.555Z,82.4
2022-11-27T11:38:00.693Z,82.1
2022-11-27T11:39:00.822Z,82.2
2022-11-27T11:40:00.974Z,81.2
2022-11-27T11:41:01.119Z,81.6
2022-11-27T11:42:00.296Z,82
2022-11-27T11:43:00.411Z,81.9
2022-11-27T11:44:00.559Z,82.4
2022-11-27T11:45:00.695Z,82.4
2022-11-27T11:46:00.908Z,82.8
2022-11-27T11:47:01.018Z,82.3
2022-11-27T11:48:01.221Z,81.3
2022-11-27T11:49:00.305Z,82.2
2022-11-27T11:50:00.437Z,82.3
2022-11-27T11:51:00.607Z,82.5
2022-11-27T11:52:00.727Z,83
2022-11-27T11:53:00.876Z,82.5
2022-11-27T11:54:01.021Z,82.4
2022-11-27T11:55:01.166Z,82.5
2022-11-27T11:56:00.352Z,82.5
2022-11-27T11:57:00.466Z,81.9
2022-11-27T11:58:00.669Z,81.7
2022-11-27T11:59:00.811Z,81.5
2022-11-27T12:00:00.896Z,81.1
2022-11-27T12:01:25.515Z,81
2022-11-27T12:02:01.256Z,81.9
2022-11-27T12:03:00.329Z,82
2022-11-27T12:04:00.535Z,81.4
2022-11-27T12:05:00.681Z,81.5
2022-11-27T12:06:00.776Z,81.7
2022-11-27T12:07:00.914Z,82.2
2022-11-27T12:08:01.239Z,81.5
2022-11-27T12:09:01.215Z,81.5
2022-11-27T12:10:00.372Z,81.6
2022-11-27T12:11:00.546Z,81.2
2022-11-27T12:12:00.662Z,81.5
2022-11-27T12:13:00.806Z,81
2022-11-27T12:14:00.998Z,80.6
2022-11-27T12:15:01.106Z,80
2022-11-27T12:16:01.272Z,79.6
2022-11-27T12:17:00.485Z,79.2
2022-11-27T12:18:00.631Z,80.5
2022-11-27T12:19:00.704Z,79.2
2022-11-27T12:20:00.875Z,80.2
2022-11-27T12:21:01.007Z,79.6
2022-11-27T12:22:01.162Z,80.5
2022-11-27T12:23:00.291Z,79.7
2022-11-27T12:24:00.454Z,79.7
2022-11-27T12:25:00.602Z,79.9
2022-11-27T12:26:00.739Z,78.9
2022-11-27T12:27:00.897Z,78.3
2022-11-27T12:28:01.093Z,79.6
2022-11-27T12:29:01.177Z,79.7
2022-11-27T12:30:00.326Z,79.1
2022-11-27T12:31:00.491Z,78.7
2022-11-27T12:32:00.738Z,78.4
2022-11-27T12:33:00.772Z,78.8
2022-11-27T12:34:00.916Z,78.8
2022-11-27T12:35:01.051Z,79.3
2022-11-27T12:36:01.207Z,78.8
2022-11-27T12:37:00.375Z,78.1
2022-11-27T12:38:00.564Z,79
2022-11-27T12:39:00.650Z,78.7
2022-11-27T12:40:00.811Z,78.4
2022-11-27T12:41:00.954Z,78.6
2022-11-27T12:42:01.128Z,79.1
2022-11-27T12:43:01.240Z,79.1
2022-11-27T12:44:00.599Z,79.8
2022-11-27T12:45:00.539Z,78.9
2022-11-27T12:46:00.760Z,79
2022-11-27T12:47:00.842Z,78.6
2022-11-27T12:48:00.966Z,78.5
2022-11-27T12:49:01.137Z,79.5
2022-11-27T12:51:00.350Z,78.9
2022-11-27T12:52:00.477Z,78.9
2022-11-27T12:53:00.626Z,78.9
2022-11-27T12:54:00.812Z,78.8
2022-11-27T12:55:00.953Z,79.5
2022-11-27T12:56:01.095Z,79.9
2022-11-27T12:57:01.250Z,79
2022-11-27T12:58:00.398Z,78.8
2022-11-27T12:59:00.536Z,79.4
2022-11-27T13:00:00.682Z,78.6
2022-11-27T13:01:00.936Z,78.6
2022-11-27T13:02:01.233Z,78.5
2022-11-27T13:03:01.293Z,78.2
2022-11-27T13:04:00.280Z,78.7
2022-11-27T13:05:00.429Z,78.8
2022-11-27T13:06:00.578Z,78.2
2022-11-27T13:07:00.730Z,78.8
2022-11-27T13:08:00.996Z,79.3
2022-11-27T13:09:01.048Z,79.7
2022-11-27T13:10:01.181Z,79.2
2022-11-27T13:11:00.324Z,79.1
2022-11-27T13:12:00.482Z,78.8
2022-11-27T13:13:00.620Z,79
2022-11-27T13:14:00.787Z,78.4
2022-11-27T13:15:00.921Z,78.3
2022-11-27T13:16:01.173Z,78.5
2022-11-27T13:17:01.287Z,79.2
2022-11-27T13:18:00.363Z,79.1
2022-11-27T13:19:00.511Z,79
2022-11-27T13:20:00.657Z,79.5
2022-11-27T13:21:00.816Z,79.5
2022-11-27T13:22:00.961Z,79.7
2022-11-27T13:23:01.133Z,79.4
2022-11-27T13:24:01.249Z,79.6
2022-11-27T13:25:00.401Z,80.3
2022-11-27T13:26:00.564Z,79.8
2022-11-27T13:27:00.723Z,80.4